Time;durP1;ratioP1;P1;durP2;ratioP2;P2;SDS_P1;SDS_P2;PMS_P1;PMS_P2;Temp;Humidity;BMP_temperature;BMP_pressure;BME280_temperature;BME280_humidity;BME280_pressure;Samples;Min_cycle;Max_cycle;Signal;HPM_P1;HPM_P2
2023/01/23 00:01:56;;;;;;;47.58;35.92;;;;;;;0.17;100.00;103415.63;5008385;28;20052;-80
2023/01/23 00:04:21;;;;;;;46.70;35.47;;;;;;;0.19;100.00;103406.16;5006982;28;20305;-80
2023/01/23 00:06:49;;;;;;;44.95;35.13;;;;;;;0.18;100.00;103414.78;5009510;28;20030;-81
2023/01/23 00:09:14;;;;;;;45.85;35.08;;;;;;;0.18;100.00;103411.34;5010161;28;20065;-80
2023/01/23 00:11:40;;;;;;;46.80;35.55;;;;;;;0.17;100.00;103414.78;5009912;28;20068;-80
2023/01/23 00:14:05;;;;;;;47.78;36.33;;;;;;;0.17;100.00;103413.06;4993170;28;20070;-80
2023/01/23 00:16:35;;;;;;;48.55;35.65;;;;;;;0.18;100.00;103419.09;4981887;28;20682;-80
2023/01/23 00:19:01;;;;;;;43.15;35.80;;;;;;;0.18;100.00;103413.91;4972741;28;20402;-81
2023/01/23 00:21:28;;;;;;;49.65;36.55;;;;;;;0.16;100.00;103415.63;4989451;28;20126;-80
2023/01/23 00:24:00;;;;;;;44.03;35.38;;;;;;;0.17;100.00;103417.38;4990119;28;20387;-81
2023/01/23 00:26:33;;;;;;;45.50;36.00;;;;;;;0.17;100.00;103418.22;5002870;28;20042;-80
2023/01/23 00:29:00;;;;;;;45.83;35.60;;;;;;;0.20;100.00;103422.56;4989582;28;20078;-81
2023/01/23 00:31:29;;;;;;;45.80;35.78;;;;;;;0.17;100.00;103422.53;4988979;28;20034;-81
2023/01/23 00:34:00;;;;;;;49.60;36.97;;;;;;;0.21;100.00;103429.47;4983349;28;20113;-81
2023/01/23 00:36:32;;;;;;;46.47;37.17;;;;;;;0.18;100.00;103430.31;5005762;28;20064;-80
2023/01/23 00:38:58;;;;;;;50.40;36.58;;;;;;;0.19;100.00;103437.22;5010369;28;20034;-81
2023/01/23 00:41:27;;;;;;;51.58;37.78;;;;;;;0.21;100.00;103445.00;5008047;28;20402;-80
2023/01/23 00:43:59;;;;;;;47.67;36.58;;;;;;;0.23;100.00;103438.13;5000107;28;20118;-81
2023/01/23 00:46:25;;;;;;;48.67;37.85;;;;;;;0.23;100.00;103443.31;4988800;28;20511;-81
2023/01/23 00:48:57;;;;;;;46.55;36.72;;;;;;;0.21;100.00;103435.53;4997149;28;20050;-80
2023/01/23 00:51:31;;;;;;;48.95;36.63;;;;;;;0.21;100.00;103442.44;4994610;28;20673;-81
2023/01/23 00:53:57;;;;;;;49.80;35.72;;;;;;;0.21;100.00;103439.84;5010519;28;20034;-81
2023/01/23 00:56:29;;;;;;;46.45;36.38;;;;;;;0.23;100.00;103443.31;5010981;28;20161;-81
2023/01/23 00:58:54;;;;;;;45.92;35.85;;;;;;;0.25;100.00;103436.44;4999115;28;20113;-81
2023/01/23 01:01:21;;;;;;;46.05;34.33;;;;;;;0.25;100.00;103436.44;4989022;28;20122;-81
2023/01/23 01:03:53;;;;;;;47.67;35.83;;;;;;;0.21;100.00;103429.47;4982791;28;20035;-81
2023/01/23 01:06:19;;;;;;;45.95;35.40;;;;;;;0.24;100.00;103432.09;4974795;28;20046;-81
2023/01/23 01:08:44;;;;;;;42.15;34.42;;;;;;;0.25;100.00;103433.84;5007986;28;20117;-81
2023/01/23 01:11:10;;;;;;;44.50;34.80;;;;;;;0.25;100.00;103436.44;5012543;28;20129;-81
2023/01/23 01:14:04;;;;;;;43.03;35.15;;;;;;;0.24;100.00;103429.50;4989269;28;20038;-81
2023/01/23 01:16:30;;;;;;;44.63;34.72;;;;;;;0.21;100.00;103429.47;5010716;28;20108;-81
2023/01/23 01:18:58;;;;;;;47.50;34.97;;;;;;;0.22;100.00;103436.41;4993993;28;20128;-81
2023/01/23 01:21:26;;;;;;;43.92;35.25;;;;;;;0.23;100.00;103440.72;5000696;28;20045;-81
2023/01/23 01:23:52;;;;;;;47.15;35.25;;;;;;;0.18;100.00;103430.31;5007717;28;20446;-81
2023/01/23 01:26:27;;;;;;;43.55;34.03;;;;;;;0.19;100.00;103439.81;4972999;28;20038;-81
2023/01/23 01:28:52;;;;;;;43.53;33.60;;;;;;;0.21;100.00;103443.28;5005371;28;20640;-81
2023/01/23 01:31:24;;;;;;;42.63;33.65;;;;;;;0.22;100.00;103450.22;4985722;28;20523;-81
2023/01/23 01:33:49;;;;;;;44.85;35.00;;;;;;;0.22;100.00;103446.75;4973580;28;20034;-81
2023/01/23 01:36:17;;;;;;;45.15;34.35;;;;;;;0.22;100.00;103457.09;4989415;28;20548;-81
2023/01/23 01:38:43;;;;;;;43.97;34.22;;;;;;;0.21;100.00;103450.19;5001735;28;20026;-81
2023/01/23 01:41:11;;;;;;;44.47;34.47;;;;;;;0.22;100.00;103457.97;4994867;28;20563;-81
2023/01/23 01:43:37;;;;;;;43.72;34.95;;;;;;;0.22;100.00;103450.22;5011755;28;20034;-81
2023/01/23 01:46:11;;;;;;;44.20;33.20;;;;;;;0.22;100.00;103451.94;4991905;28;20039;-81
2023/01/23 01:49:04;;;;;;;48.55;35.20;;;;;;;0.26;100.00;103453.69;4987805;28;20557;-81
2023/01/23 01:51:35;;;;;;;45.05;34.42;;;;;;;0.19;100.00;103447.59;4997253;28;20395;-81
2023/01/23 01:54:20;;;;;;;49.80;35.65;;;;;;;0.21;100.00;103452.78;5010333;28;20506;-81
2023/01/23 01:56:54;;;;;;;43.78;35.13;;;;;;;0.23;100.00;103448.50;5010752;28;20665;-81
2023/01/23 01:59:23;;;;;;;45.40;35.42;;;;;;;0.24;100.00;103450.22;5011587;28;20057;-81
2023/01/23 02:01:55;;;;;;;46.80;35.33;;;;;;;0.25;100.00;103441.59;4983834;28;20086;-81
2023/01/23 02:04:21;;;;;;;45.22;35.17;;;;;;;0.23;100.00;103438.13;4972506;28;20038;-81
2023/01/23 02:06:47;;;;;;;47.97;35.45;;;;;;;0.25;100.00;103447.66;4975053;28;20035;-80
2023/01/23 02:09:26;;;;;;;46.65;35.40;;;;;;;0.26;100.00;103440.75;4990732;28;20056;-81
2023/01/23 02:11:51;;;;;;;43.70;35.13;;;;;;;0.26;100.00;103445.94;5006339;28;20100;-81
2023/01/23 02:14:18;;;;;;;46.53;34.33;;;;;;;0.26;100.00;103435.56;5011508;28;20041;-81
2023/01/23 02:16:49;;;;;;;44.33;34.00;;;;;;;0.28;100.00;103437.31;4993446;28;20129;-80
2023/01/23 02:19:53;;;;;;;47.05;35.72;;;;;;;0.32;100.00;103438.22;4996118;28;20042;-81
2023/01/23 02:22:45;;;;;;;46.63;35.30;;;;;;;0.31;100.00;103436.47;4982679;28;20030;-81
2023/01/23 02:25:47;;;;;;;47.88;35.38;;;;;;;0.33;100.00;103442.53;4998461;28;20035;-81
2023/01/23 02:28:20;;;;;;;52.78;35.85;;;;;;;0.27;100.00;103442.50;4963254;28;20109;-81
2023/01/23 02:30:46;;;;;;;47.13;35.70;;;;;;;0.29;100.00;103443.38;4972458;28;20066;-81
2023/01/23 02:33:21;;;;;;;49.88;35.75;;;;;;;0.26;100.00;103443.34;4976439;28;20049;-81
2023/01/23 02:35:47;;;;;;;49.17;36.65;;;;;;;0.27;100.00;103445.94;5010753;28;20065;-81
2023/01/23 02:38:13;;;;;;;48.60;35.88;;;;;;;0.27;100.00;103445.06;5009055;28;20053;-81
2023/01/23 02:40:41;;;;;;;54.22;36.45;;;;;;;0.25;100.00;103445.06;4974536;28;20046;-81
2023/01/23 02:43:11;;;;;;;47.28;35.08;;;;;;;0.25;100.00;103446.78;4972246;28;20109;-81
2023/01/23 02:45:44;;;;;;;54.65;36.75;;;;;;;0.25;100.00;103442.47;4974273;28;20442;-81
2023/01/23 02:48:09;;;;;;;54.03;36.13;;;;;;;0.26;100.00;103438.16;4989284;28;20058;-81
2023/01/23 02:50:35;;;;;;;50.90;36.83;;;;;;;0.28;100.00;103434.72;4990936;28;20069;-81
2023/01/23 02:53:11;;;;;;;;;;;;;;;;;;;;;
2023/01/23 02:55:41;;;;;;;52.42;37.13;;;;;;;0.28;100.00;103437.31;5010530;28;20037;-81
2023/01/23 03:00:50;;;;;;;48.67;36.80;;;;;;;0.30;100.00;103451.16;4997601;28;20065;-81
2023/01/23 03:03:16;;;;;;;58.85;36.70;;;;;;;0.32;100.00;103440.81;4997721;28;20034;-81
2023/01/23 03:05:42;;;;;;;47.97;36.15;;;;;;;0.34;100.00;103441.69;5006569;28;20159;-81
2023/01/23 03:08:07;;;;;;;47.85;36.13;;;;;;;0.32;100.00;103449.44;4968424;28;20038;-81
2023/01/23 03:10:35;;;;;;;49.33;36.22;;;;;;;0.32;100.00;103451.16;5010541;28;20041;-81
2023/01/23 03:13:02;;;;;;;49.90;36.33;;;;;;;0.32;100.00;103443.41;4995170;28;20042;-81
2023/01/23 03:15:29;;;;;;;49.40;37.05;;;;;;;0.32;100.00;103453.75;5004941;28;20030;-81
2023/01/23 03:17:55;;;;;;;53.88;36.38;;;;;;;0.34;100.00;103446.00;5004004;28;20040;-82
2023/01/23 03:20:25;;;;;;;55.63;36.35;;;;;;;0.33;100.00;103445.13;4982873;28;20038;-81
2023/01/23 03:22:51;;;;;;;53.33;37.08;;;;;;;0.31;100.00;103445.13;4992213;28;20458;-81
2023/01/23 03:25:16;;;;;;;49.50;36.05;;;;;;;0.34;100.00;103449.47;4988537;28;20141;-81
2023/01/23 03:27:41;;;;;;;50.10;35.92;;;;;;;0.35;100.00;103447.75;4990144;28;20105;-81
2023/01/23 03:30:12;;;;;;;49.83;36.70;;;;;;;0.30;100.00;103447.69;4969737;28;20118;-80
2023/01/23 03:32:37;;;;;;;50.22;37.55;;;;;;;0.35;100.00;103450.31;4961499;28;20045;-81
2023/01/23 03:35:09;;;;;;;48.20;36.50;;;;;;;0.34;100.00;103456.34;5010240;28;20034;-81
2023/01/23 03:37:37;;;;;;;54.15;37.28;;;;;;;0.35;100.00;103458.97;4982149;28;20034;-81
2023/01/23 03:42:58;;;;;;;49.90;35.83;;;;;;;0.35;100.00;103452.91;5008399;28;20037;-81
2023/01/23 03:45:24;;;;;;;50.15;37.08;;;;;;;0.35;100.00;103452.91;5002112;28;20031;-81
2023/01/23 03:47:49;;;;;;;50.95;36.05;;;;;;;0.34;100.00;103461.53;4990579;28;20093;-81
2023/01/23 03:50:14;;;;;;;49.90;36.08;;;;;;;0.34;100.00;103457.22;4998142;28;20482;-81
2023/01/23 03:52:40;;;;;;;48.38;37.53;;;;;;;0.35;100.00;103461.56;4975006;28;20035;-81
2023/01/23 03:55:05;;;;;;;56.28;37.42;;;;;;;0.38;100.00;103455.53;4990553;28;20065;-81
2023/01/23 03:57:31;;;;;;;51.75;36.78;;;;;;;0.36;100.00;103457.25;5003212;28;20038;-81
2023/01/23 03:59:56;;;;;;;46.05;36.42;;;;;;;0.35;100.00;103452.91;4985426;28;20042;-81
2023/01/23 04:02:22;;;;;;;54.50;36.92;;;;;;;0.34;100.00;103452.06;4979605;28;20794;-81
2023/01/23 04:04:50;;;;;;;58.10;38.97;;;;;;;0.32;100.00;103453.75;4991444;28;20557;-81
2023/01/23 04:07:16;;;;;;;60.22;38.38;;;;;;;0.36;100.00;103444.28;5009418;28;20042;-81
2023/01/23 04:09:41;;;;;;;52.22;37.28;;;;;;;0.37;100.00;103446.91;5004972;28;20034;-81
2023/01/23 04:12:07;;;;;;;58.88;38.55;;;;;;;0.36;100.00;103452.94;4959825;28;20035;-81
2023/01/23 04:14:56;;;;;;;52.78;38.47;;;;;;;0.38;100.00;103458.13;4990500;28;20049;-81
2023/01/23 04:17:25;;;;;;;50.15;36.97;;;;;;;0.38;100.00;103448.63;4989937;28;20496;-79
2023/01/23 04:19:50;;;;;;;52.70;38.78;;;;;;;0.41;100.00;103453.00;5004408;28;20044;-80
2023/01/23 04:22:15;;;;;;;52.20;36.78;;;;;;;0.41;100.00;103448.69;4986195;28;20031;-80
2023/01/23 04:24:41;;;;;;;55.22;38.35;;;;;;;0.42;100.00;103445.25;4990540;28;20449;-80
2023/01/23 04:27:06;;;;;;;56.60;37.55;;;;;;;0.43;100.00;103454.75;4984686;28;20038;-80
2023/01/23 04:29:32;;;;;;;57.85;38.38;;;;;;;0.42;100.00;103453.03;4979917;28;20461;-80
2023/01/23 04:31:57;;;;;;;56.28;38.40;;;;;;;0.43;100.00;103459.94;5003568;28;20041;-79
2023/01/23 04:34:23;;;;;;;54.05;38.17;;;;;;;0.45;100.00;103466.00;4967469;28;20132;-80
2023/01/23 04:36:51;;;;;;;48.92;37.17;;;;;;;0.43;100.00;103461.66;4996312;28;20064;-80
2023/01/23 04:39:20;;;;;;;50.80;37.28;;;;;;;0.44;100.00;103464.25;4992660;28;20044;-80
2023/01/23 04:41:54;;;;;;;53.65;37.72;;;;;;;0.45;100.00;103466.00;5007678;28;20042;-80
2023/01/23 04:44:23;;;;;;;52.50;37.75;;;;;;;0.42;100.00;103470.28;4995898;28;20037;-80
2023/01/23 04:46:51;;;;;;;55.05;39.00;;;;;;;0.44;100.00;103471.16;5012131;28;20509;-80
2023/01/23 04:49:18;;;;;;;54.22;37.60;;;;;;;0.44;100.00;103463.41;5011707;28;20034;-80
2023/01/23 04:51:52;;;;;;;51.60;38.35;;;;;;;0.45;100.00;103465.13;4994886;28;20046;-80
2023/01/23 04:54:21;;;;;;;50.50;38.15;;;;;;;0.43;100.00;103467.72;5010096;28;20037;-80
2023/01/23 04:56:47;;;;;;;51.28;38.30;;;;;;;0.43;100.00;103479.78;5009444;28;21200;-79
2023/01/23 04:59:14;;;;;;;60.38;38.63;;;;;;;0.45;100.00;103475.50;4980702;28;20042;-80
2023/01/23 05:01:40;;;;;;;51.85;37.97;;;;;;;0.44;100.00;103477.22;4986578;28;20431;-80
2023/01/23 05:04:05;;;;;;;52.78;39.28;;;;;;;0.45;100.00;103483.25;5012415;28;20088;-80
2023/01/23 05:06:30;;;;;;;52.75;38.47;;;;;;;0.47;100.00;103484.16;5012721;28;20037;-80
2023/01/23 05:08:56;;;;;;;55.83;38.63;;;;;;;0.46;100.00;103477.22;5010690;28;20072;-80
2023/01/23 05:11:21;;;;;;;53.65;38.03;;;;;;;0.46;100.00;103483.28;5002998;28;20538;-80
2023/01/23 05:13:47;;;;;;;56.53;39.10;;;;;;;0.46;100.00;103472.91;5000755;28;20129;-80
2023/01/23 05:16:13;;;;;;;54.88;38.22;;;;;;;0.46;100.00;103482.41;4988846;28;20482;-80
2023/01/23 05:18:39;;;;;;;54.33;37.42;;;;;;;0.44;100.00;103479.81;4989909;28;20915;-82
2023/01/23 05:21:05;;;;;;;55.92;38.78;;;;;;;0.48;100.00;103486.75;4993192;28;20429;-82
2023/01/23 05:23:30;;;;;;;57.30;38.72;;;;;;;0.47;100.00;103487.59;5011905;28;20117;-82
2023/01/23 05:25:55;;;;;;;55.45;38.63;;;;;;;0.44;100.00;103484.13;4995009;28;20073;-82
2023/01/23 05:28:21;;;;;;;53.33;38.03;;;;;;;0.46;100.00;103482.41;4991939;28;20050;-82
2023/01/23 05:30:46;;;;;;;53.53;39.17;;;;;;;0.46;100.00;103496.22;4993603;28;20437;-82
2023/01/23 05:33:12;;;;;;;53.92;39.33;;;;;;;0.48;100.00;103496.25;4983202;28;20097;-80
2023/01/23 05:35:38;;;;;;;53.38;38.75;;;;;;;0.45;100.00;103494.50;4976929;28;20059;-80
2023/01/23 05:38:04;;;;;;;53.72;37.17;;;;;;;0.46;100.00;103488.47;4994686;28;20040;-80
2023/01/23 05:40:35;;;;;;;60.33;38.80;;;;;;;0.48;100.00;103494.53;4992732;28;20046;-80
2023/01/23 05:43:00;;;;;;;54.15;38.63;;;;;;;0.49;100.00;103490.22;5010981;28;20112;-80
2023/01/23 05:45:26;;;;;;;54.30;39.03;;;;;;;0.45;100.00;103486.72;5004099;28;20545;-82
2023/01/23 05:47:54;;;;;;;61.05;40.03;;;;;;;0.47;100.00;103489.31;4997247;28;20042;-80
2023/01/23 05:50:22;;;;;;;51.97;38.40;;;;;;;0.44;100.00;103492.75;5003292;28;20042;-80
2023/01/23 05:52:48;;;;;;;56.42;39.90;;;;;;;0.50;100.00;103500.59;4970182;28;20046;-80
2023/01/23 05:55:16;;;;;;;59.50;39.60;;;;;;;0.49;100.00;103506.63;4996461;28;20042;-79
2023/01/23 05:57:42;;;;;;;59.90;40.17;;;;;;;0.50;100.00;103504.91;4990189;28;20042;-79
2023/01/23 06:00:10;;;;;;;60.00;39.42;;;;;;;0.48;100.00;103502.28;4991733;28;20081;-79
2023/01/23 06:02:36;;;;;;;58.42;40.50;;;;;;;0.47;100.00;103504.88;4999598;28;20038;-79
2023/01/23 06:05:13;;;;;;;55.15;39.08;;;;;;;0.50;100.00;103512.66;4981134;28;20089;-79
2023/01/23 06:07:38;;;;;;;64.43;40.72;;;;;;;0.50;100.00;103516.13;4987101;28;20057;-79
2023/01/23 06:10:05;;;;;;;56.50;40.88;;;;;;;0.52;100.00;103517.00;4991453;28;20034;-79
2023/01/23 06:12:30;;;;;;;57.92;40.58;;;;;;;0.55;100.00;103514.44;4994873;28;20073;-80
2023/01/23 06:14:56;;;;;;;60.97;40.60;;;;;;;0.53;100.00;103516.16;4992266;28;20553;-79
2023/01/23 06:17:21;;;;;;;58.85;41.17;;;;;;;0.57;100.00;103517.91;5011005;28;20133;-79
2023/01/23 06:19:50;;;;;;;57.53;40.85;;;;;;;0.54;100.00;103523.06;4975020;28;20036;-79
2023/01/23 06:22:16;;;;;;;57.78;41.40;;;;;;;0.56;100.00;103521.38;4990910;28;20070;-82
2023/01/23 06:24:41;;;;;;;59.30;39.97;;;;;;;0.54;100.00;103517.88;4985993;28;20206;-81
2023/01/23 06:27:07;;;;;;;60.47;42.42;;;;;;;0.58;100.00;103521.38;4991326;28;20034;-80
2023/01/23 06:29:36;;;;;;;60.55;40.90;;;;;;;0.58;100.00;103519.66;4995097;28;20037;-79
2023/01/23 06:32:05;;;;;;;56.22;41.40;;;;;;;0.59;100.00;103520.53;4984012;28;20045;-80
2023/01/23 06:34:31;;;;;;;58.15;41.33;;;;;;;0.61;100.00;103513.63;4994194;28;20399;-80
2023/01/23 06:36:56;;;;;;;57.85;42.75;;;;;;;0.62;100.00;103525.75;5001114;28;20046;-80
2023/01/23 06:39:22;;;;;;;58.25;41.90;;;;;;;0.64;100.00;103516.25;4972996;28;20205;-80
2023/01/23 06:41:47;;;;;;;60.85;40.80;;;;;;;0.66;100.00;103526.63;4987124;28;20065;-79
2023/01/23 06:44:15;;;;;;;59.30;41.45;;;;;;;0.66;100.00;103521.44;4970014;28;20023;-79
2023/01/23 06:46:40;;;;;;;60.58;42.15;;;;;;;0.68;100.00;103522.34;4971549;28;20038;-80
2023/01/23 06:49:06;;;;;;;55.58;39.50;;;;;;;0.67;100.00;103523.19;4984323;28;20038;-80
2023/01/23 06:51:35;;;;;;;53.15;40.83;;;;;;;0.67;100.00;103524.06;4994798;28;20030;-80
2023/01/23 06:54:00;;;;;;;52.17;39.72;;;;;;;0.68;100.00;103524.94;4981835;28;20104;-80
2023/01/23 06:56:29;;;;;;;55.40;39.47;;;;;;;0.64;100.00;103524.03;4991423;28;20061;-82
2023/01/23 06:58:57;;;;;;;54.08;39.88;;;;;;;0.65;100.00;103525.75;4972236;28;20538;-80
2023/01/23 07:01:25;;;;;;;54.35;39.75;;;;;;;0.68;100.00;103536.16;4971688;28;20034;-79
2023/01/23 07:03:51;;;;;;;55.92;40.42;;;;;;;0.70;100.00;103538.75;4991893;28;20034;-80
2023/01/23 07:06:17;;;;;;;53.55;39.38;;;;;;;0.70;100.00;103538.75;4991239;28;20042;-80
2023/01/23 07:08:42;;;;;;;55.83;40.28;;;;;;;0.73;100.00;103543.97;5002337;28;20096;-82
2023/01/23 07:11:09;;;;;;;54.00;39.20;;;;;;;0.74;100.00;103548.31;5006899;28;20045;-80
2023/01/23 07:13:34;;;;;;;55.67;40.22;;;;;;;0.74;100.00;103545.72;4991990;28;20046;-80
2023/01/23 07:16:00;;;;;;;50.50;38.42;;;;;;;0.72;100.00;103545.69;4992710;28;20040;-80
2023/01/23 07:18:27;;;;;;;52.80;38.05;;;;;;;0.71;100.00;103550.88;4989272;28;20125;-80
2023/01/23 07:20:53;;;;;;;51.53;38.83;;;;;;;0.74;100.00;103551.75;4974123;28;20045;-80
2023/01/23 07:23:19;;;;;;;52.92;38.00;;;;;;;0.77;100.00;103546.59;4971145;28;20034;-80
2023/01/23 07:25:44;;;;;;;50.00;38.05;;;;;;;0.78;100.00;103550.06;4989406;28;20034;-80
2023/01/23 07:28:10;;;;;;;52.90;38.42;;;;;;;0.78;100.00;103557.84;4978904;28;20053;-80
2023/01/23 07:30:36;;;;;;;51.33;38.05;;;;;;;0.79;100.00;103564.75;5008825;28;20038;-80
2023/01/23 07:33:05;;;;;;;52.72;38.17;;;;;;;0.77;100.00;103566.47;4974293;28;20034;-80
2023/01/23 07:35:31;;;;;;;49.92;38.95;;;;;;;0.77;100.00;103566.47;4968646;28;20499;-79
2023/01/23 07:37:57;;;;;;;53.53;39.72;;;;;;;0.80;100.00;103570.00;4988050;28;20085;-80
2023/01/23 07:40:23;;;;;;;49.47;38.28;;;;;;;0.80;100.00;103572.59;4985435;28;20341;-80
2023/01/23 07:42:48;;;;;;;50.50;37.88;;;;;;;0.78;100.00;103574.25;5001211;28;20030;-80
2023/01/23 07:45:13;;;;;;;50.85;37.55;;;;;;;0.81;100.00;103576.03;4994935;28;20109;-79
2023/01/23 07:47:45;;;;;;;50.67;38.05;;;;;;;0.80;100.00;103575.19;4990222;28;20052;-79
2023/01/23 07:50:11;;;;;;;51.40;38.23;;;;;;;0.80;100.00;103582.94;4989607;28;20046;-79
2023/01/23 07:52:38;;;;;;;47.80;37.03;;;;;;;0.76;100.00;103585.47;4993856;28;20113;-80
2023/01/23 07:55:04;;;;;;;46.00;36.50;;;;;;;0.75;100.00;103589.78;4997852;28;20052;-80
2023/01/23 07:57:30;;;;;;;50.53;36.03;;;;;;;0.76;100.00;103595.81;5001948;28;20368;-80
2023/01/23 07:59:55;;;;;;;47.38;36.20;;;;;;;0.77;100.00;103593.25;4997051;28;20036;-81
2023/01/23 08:02:20;;;;;;;51.53;37.25;;;;;;;0.77;100.00;103592.38;4988846;28;20037;-83
2023/01/23 08:04:46;;;;;;;47.78;36.75;;;;;;;0.78;100.00;103600.16;4990169;28;20044;-81
2023/01/23 08:07:13;;;;;;;46.60;36.65;;;;;;;0.80;100.00;103595.91;4968971;28;20372;-80
2023/01/23 08:09:39;;;;;;;50.10;37.70;;;;;;;0.80;100.00;103592.41;5004077;28;20045;-80
2023/01/23 08:12:05;;;;;;;47.80;35.70;;;;;;;0.82;100.00;103588.16;4989739;28;20030;-80
2023/01/23 08:14:30;;;;;;;45.83;36.38;;;;;;;0.84;100.00;103589.91;4990868;28;20058;-78
2023/01/23 08:16:56;;;;;;;49.30;36.47;;;;;;;0.89;100.00;103597.72;4990737;28;20066;-83
2023/01/23 08:19:24;;;;;;;50.92;38.42;;;;;;;0.87;100.00;103599.44;4990681;28;20038;-83
2023/01/23 08:21:49;;;;;;;48.15;37.47;;;;;;;0.87;100.00;103596.84;4989369;28;20121;-83
2023/01/23 08:24:15;;;;;;;52.92;39.38;;;;;;;0.89;100.00;103597.72;4989690;28;20545;-83
2023/01/23 08:26:44;;;;;;;47.45;37.63;;;;;;;0.90;100.00;103595.13;4990220;28;20030;-78
2023/01/23 08:29:10;;;;;;;47.38;37.13;;;;;;;0.94;100.00;103601.22;4988301;28;20085;-80
2023/01/23 08:31:36;;;;;;;46.58;37.22;;;;;;;0.96;100.00;103604.69;4984247;28;20432;-80
2023/01/23 08:34:05;;;;;;;48.47;38.10;;;;;;;0.97;100.00;103610.75;4989583;28;20065;-80
2023/01/23 08:36:30;;;;;;;45.88;37.17;;;;;;;0.98;100.00;103608.19;4989241;28;20032;-80
2023/01/23 08:38:55;;;;;;;45.45;36.13;;;;;;;0.99;100.00;103609.91;4988748;28;20035;-80
2023/01/23 08:41:22;;;;;;;44.13;35.70;;;;;;;0.99;100.00;103614.22;4988798;28;20121;-80
2023/01/23 08:43:48;;;;;;;44.67;35.65;;;;;;;1.00;100.00;103609.06;4989984;28;20031;-80
2023/01/23 08:46:14;;;;;;;44.33;35.17;;;;;;;1.02;100.00;103615.13;4987685;28;20125;-81
2023/01/23 08:48:39;;;;;;;43.58;35.72;;;;;;;1.03;100.00;103611.69;4971769;28;20526;-80
2023/01/23 08:51:08;;;;;;;42.53;34.90;;;;;;;1.06;100.00;103616.88;4980605;28;20105;-80
2023/01/23 08:53:34;;;;;;;49.65;36.00;;;;;;;1.08;100.00;103625.56;4991759;28;20042;-81
2023/01/23 08:56:16;;;;;;;43.63;35.25;;;;;;;1.12;100.00;103619.53;4971319;28;20046;-81
2023/01/23 08:58:42;;;;;;;;;;;;;;;1.19;100.00;103621.34;4990674;28;20037;-81
2023/01/23 09:01:15;;;;;;;42.42;34.63;;;;;;;1.15;100.00;103622.16;4987357;28;19909;-81
2023/01/23 09:03:47;;;;;;;48.13;35.90;;;;;;;1.15;100.00;103619.56;4972678;28;20173;-81
2023/01/23 09:06:14;;;;;;;45.88;35.60;;;;;;;1.17;100.00;103620.44;4988899;28;20042;-81
2023/01/23 09:08:40;;;;;;;47.17;36.35;;;;;;;1.18;100.00;103622.19;5002894;28;20046;-81
2023/01/23 09:11:07;;;;;;;45.42;35.00;;;;;;;1.22;100.00;103623.13;4991891;28;20096;-81
2023/01/23 09:13:33;;;;;;;44.35;35.80;;;;;;;1.23;100.00;103630.91;5002861;28;20042;-81
2023/01/23 09:15:59;;;;;;;44.42;35.58;;;;;;;1.25;100.00;103629.19;4960765;28;20057;-81
2023/01/23 09:18:25;;;;;;;42.25;34.53;;;;;;;1.25;100.00;103634.38;4988488;28;20031;-81
2023/01/23 09:20:54;;;;;;;45.42;34.65;;;;;;;1.27;100.00;103631.81;4988504;28;20451;-81
2023/01/23 09:23:20;;;;;;;42.63;34.03;;;;;;;1.30;100.00;103625.78;4979421;28;20042;-81
2023/01/23 09:25:45;;;;;;;46.38;34.88;;;;;;;1.33;100.00;103625.81;4992441;28;20387;-84
2023/01/23 09:28:11;;;;;;;40.67;34.80;;;;;;;1.33;100.00;103620.63;5006091;28;20050;-81
2023/01/23 09:30:37;;;;;;;41.08;33.88;;;;;;;1.36;100.00;103615.47;4993707;28;20042;-81
2023/01/23 09:33:06;;;;;;;43.28;34.33;;;;;;;1.37;100.00;103618.06;4973079;28;20066;-81
2023/01/23 09:35:32;;;;;;;46.08;35.85;;;;;;;1.40;100.00;103619.81;5007633;28;20034;-81
2023/01/23 09:38:00;;;;;;;41.75;35.03;;;;;;;1.42;100.00;103621.56;4991041;28;20038;-81
2023/01/23 09:40:43;;;;;;;44.20;34.30;;;;;;;1.46;100.00;103620.72;4971980;28;20419;-81
2023/01/23 09:43:20;;;;;;;41.47;34.45;;;;;;;1.51;100.00;103620.75;4985676;28;20041;-81
2023/01/23 09:46:10;;;;;;;38.80;33.08;;;;;;;1.56;100.00;103625.13;4992712;28;20045;-81
2023/01/23 09:48:44;;;;;;;41.20;32.97;;;;;;;1.56;100.00;103624.25;4991143;28;20121;-81
2023/01/23 09:51:28;;;;;;;44.78;34.10;;;;;;;1.59;100.00;103639.84;4975039;28;20042;-81
2023/01/23 09:54:03;;;;;;;38.67;32.90;;;;;;;1.62;100.00;103644.22;4975941;28;20594;-81
2023/01/23 09:56:37;;;;;;;44.65;33.08;;;;;;;1.59;100.00;103650.22;4989223;28;20093;-80
2023/01/23 09:59:13;;;;;;;40.45;33.63;;;;;;;1.62;100.00;103652.88;4992691;28;20068;-80
2023/01/23 10:01:39;;;;;;;36.38;32.40;;;;;;;1.62;100.00;103645.09;4992674;28;20048;-80
2023/01/23 10:04:04;;;;;;;36.58;31.25;;;;;;;1.63;100.00;103649.44;4991434;28;20026;-82
2023/01/23 10:06:38;;;;;;;40.42;32.15;;;;;;;1.66;100.00;103648.59;4974682;28;20140;-82
2023/01/23 10:09:34;;;;;;;41.10;33.10;;;;;;;1.67;100.00;103643.41;4990846;28;20060;-81
2023/01/23 10:12:25;;;;;;;38.55;31.98;;;;;;;1.69;100.00;103646.00;4992755;28;20038;-81
2023/01/23 10:15:05;;;;;;;37.53;31.45;;;;;;;1.70;100.00;103638.22;4990672;28;20368;-80
2023/01/23 10:18:00;;;;;;;36.75;31.27;;;;;;;1.74;100.00;103640.00;4991007;28;20109;-81
2023/01/23 10:20:48;;;;;;;37.50;31.48;;;;;;;1.77;100.00;103639.16;4991063;28;20498;-81
2023/01/23 10:23:23;;;;;;;35.60;31.05;;;;;;;1.77;100.00;103640.00;4984293;28;20034;-81
2023/01/23 10:25:49;;;;;;;37.20;31.50;;;;;;;1.80;100.00;103644.34;4990589;28;20050;-82
2023/01/23 10:28:34;;;;;;;43.65;36.30;;;;;;;1.80;100.00;103655.59;4992247;28;20100;-82
2023/01/23 10:31:04;;;;;;;52.97;39.53;;;;;;;1.80;100.00;103645.22;4985158;28;20034;-81
2023/01/23 10:33:41;;;;;;;36.95;31.52;;;;;;;1.83;100.00;103650.44;4978570;28;20035;-82
2023/01/23 10:36:17;;;;;;;35.22;30.85;;;;;;;1.83;100.00;103649.56;4992112;28;20039;-82
2023/01/23 10:38:55;;;;;;;35.15;29.40;;;;;;;1.84;100.00;103641.78;4991331;28;20142;-82
2023/01/23 10:41:21;;;;;;;35.28;29.77;;;;;;;1.84;100.00;103641.78;4980352;28;20077;-86
2023/01/23 10:43:50;;;;;;;36.97;30.10;;;;;;;1.86;100.00;103637.47;4962089;28;20050;-83
2023/01/23 10:46:44;;;;;;;34.88;29.52;;;;;;;1.87;100.00;103647.00;4965907;28;20089;-84
2023/01/23 10:49:09;;;;;;;35.58;29.85;;;;;;;1.87;100.00;103636.63;4976670;28;20482;-84
2023/01/23 10:51:38;;;;;;;36.15;29.27;;;;;;;1.91;100.00;103642.69;4988539;28;20033;-84
2023/01/23 10:54:20;;;;;;;37.85;30.05;;;;;;;1.94;100.00;103639.25;4991362;28;20446;-83
2023/01/23 10:56:59;;;;;;;36.28;29.42;;;;;;;1.96;100.00;103637.53;4998064;28;20441;-83
2023/01/23 10:59:35;;;;;;;34.45;29.60;;;;;;;1.96;100.00;103624.56;4997412;28;20042;-84
2023/01/23 11:02:01;;;;;;;37.75;30.13;;;;;;;1.96;100.00;103627.16;4998519;28;20038;-83
2023/01/23 11:04:30;;;;;;;36.30;30.60;;;;;;;1.97;100.00;103631.47;5003612;28;20095;-83
2023/01/23 11:07:17;;;;;;;37.83;30.05;;;;;;;1.99;100.00;103629.75;4981095;28;20491;-84
2023/01/23 11:10:13;;;;;;;36.00;29.92;;;;;;;1.99;100.00;103632.38;4971996;28;20442;-84
2023/01/23 11:12:52;;;;;;;35.78;29.92;;;;;;;2.01;100.00;103633.28;4991354;28;20398;-85
2023/01/23 11:15:27;;;;;;;36.13;30.33;;;;;;;2.04;100.00;103633.28;4973762;28;20194;-83
2023/01/23 11:17:58;;;;;;;42.25;33.55;;;;;;;2.07;100.00;103628.13;4990328;28;20542;-84
2023/01/23 11:20:41;;;;;;;36.95;30.17;;;;;;;2.10;100.00;103635.91;4989866;28;20038;-84
2023/01/23 11:23:07;;;;;;;33.60;29.85;;;;;;;2.08;100.00;103627.25;4972397;28;20037;-84
2023/01/23 11:25:37;;;;;;;37.40;31.92;;;;;;;2.08;100.00;103637.63;5006551;28;20030;-84
2023/01/23 11:28:34;;;;;;;39.47;33.42;;;;;;;2.11;100.00;103635.06;4990113;28;20468;-83